Time;durP1;ratioP1;P1;durP2;ratioP2;P2;SDS_P1;SDS_P2;PMS_P1;PMS_P2;Temp;Humidity;BMP_temperature;BMP_pressure;BME280_temperature;BME280_humidity;BME280_pressure;Samples;Min_cycle;Max_cycle;Signal;HPM_P1;HPM_P2
2024/01/29 00:00:57;;;;;;;15.70;10.20;;;;;;;0.23;68.23;101460.70;107170;1257;68332;-39
2024/01/29 00:03:26;;;;;;;15.30;10.40;;;;;;;0.22;68.34;101460.84;107196;1261;72493;-39
2024/01/29 00:05:54;;;;;;;15.10;9.70;;;;;;;0.19;68.27;101461.45;107298;1261;60275;-40
2024/01/29 00:08:23;;;;;;;15.60;9.70;;;;;;;0.15;68.43;101461.68;107221;1257;60378;-39
2024/01/29 00:10:51;;;;;;;15.60;10.60;;;;;;;0.11;68.27;101461.60;107240;1257;72582;-39
2024/01/29 00:13:19;;;;;;;14.20;9.90;;;;;;;0.05;68.62;101463.20;107000;1257;67138;-39
2024/01/29 00:15:47;;;;;;;14.10;9.60;;;;;;;0.02;68.76;101463.08;107082;1261;72491;-39
2024/01/29 00:18:15;;;;;;;14.80;9.70;;;;;;;-0.02;68.75;101457.05;107131;1257;60180;-39
2024/01/29 00:20:42;;;;;;;14.80;9.70;;;;;;;-0.06;68.88;101459.60;107203;1261;59298;-39
2024/01/29 00:23:10;;;;;;;14.90;9.60;;;;;;;-0.09;68.90;101459.52;107294;1257;73816;-39
2024/01/29 00:25:37;;;;;;;17.80;10.30;;;;;;;-0.13;68.72;101467.45;107241;1257;68496;-39
2024/01/29 00:28:05;;;;;;;15.50;10.20;;;;;;;-0.17;68.97;101470.78;107219;1262;71397;-39
2024/01/29 00:30:32;;;;;;;14.70;9.00;;;;;;;-0.14;69.04;101475.80;107239;1260;60919;-39
2024/01/29 00:33:01;;;;;;;15.30;9.70;;;;;;;-0.06;68.81;101474.45;107285;1256;60989;-39
2024/01/29 00:35:29;;;;;;;13.80;9.60;;;;;;;-0.02;68.95;101476.34;107272;1257;72571;-39
2024/01/29 00:37:56;;;;;;;16.70;11.00;;;;;;;-0.02;68.94;101472.55;107252;1257;68675;-39
2024/01/29 00:40:25;;;;;;;17.70;11.50;;;;;;;-0.02;68.94;101473.25;107223;1257;71464;-39
2024/01/29 00:42:52;;;;;;;17.40;11.00;;;;;;;-0.05;69.09;101468.67;107230;1258;60286;-39
2024/01/29 00:45:20;;;;;;;17.10;11.70;;;;;;;-0.06;69.02;101466.73;107263;1262;60481;-39
2024/01/29 00:47:48;;;;;;;19.40;11.60;;;;;;;-0.07;69.44;101465.53;107248;1257;74305;-39
2024/01/29 00:50:15;;;;;;;17.30;11.60;;;;;;;-0.08;69.44;101464.27;106533;1256;1003594;-39
2024/01/29 00:52:43;;;;;;;18.20;11.00;;;;;;;-0.12;69.33;101457.80;107301;1257;71786;-39
2024/01/29 00:55:10;;;;;;;16.70;10.80;;;;;;;-0.16;69.38;101456.04;107156;1257;60384;-38
2024/01/29 00:57:38;;;;;;;17.80;11.70;;;;;;;-0.19;69.46;101462.93;107186;1262;60484;-39
2024/01/29 01:00:07;;;;;;;22.50;13.20;;;;;;;-0.21;69.71;101466.98;107115;1257;73825;-39
2024/01/29 01:02:34;;;;;;;17.90;12.20;;;;;;;-0.16;69.78;101461.23;107272;1257;68396;-39
2024/01/29 01:05:02;;;;;;;20.00;11.70;;;;;;;-0.07;69.53;101460.04;107249;1255;72748;-39
2024/01/29 01:07:30;;;;;;;18.80;12.20;;;;;;;-0.03;69.86;101466.14;107185;1262;60489;-39
2024/01/29 01:09:57;;;;;;;19.50;12.90;;;;;;;-0.04;69.67;101470.34;107074;1257;112829;-39
2024/01/29 01:14:35;;;;;;;21.90;13.10;;;;;;;-0.06;69.95;101468.09;104353;1291;600391;-39
2024/01/29 01:17:04;;;;;;;21.20;13.30;;;;;;;-0.09;69.97;101464.70;106629;1267;59217;-39
2024/01/29 01:19:32;;;;;;;21.10;13.10;;;;;;;-0.07;70.10;101468.73;106663;1267;59312;-39
2024/01/29 01:21:59;;;;;;;20.70;13.00;;;;;;;-0.07;70.18;101469.48;106644;1265;72252;-40
2024/01/29 01:24:27;;;;;;;21.40;12.70;;;;;;;-0.07;70.12;101477.75;106673;1267;67381;-40
2024/01/29 01:26:54;;;;;;;19.10;12.30;;;;;;;-0.06;70.22;101477.70;106674;1266;72618;-40
2024/01/29 01:29:22;;;;;;;19.70;12.40;;;;;;;-0.06;70.18;101479.79;106711;1262;125604;-40
2024/01/29 01:31:50;;;;;;;17.90;12.00;;;;;;;-0.01;70.29;101480.20;106786;1268;59183;-40
2024/01/29 01:34:17;;;;;;;17.00;11.60;;;;;;;0.04;70.23;101477.67;106779;1262;72931;-40
2024/01/29 01:36:45;;;;;;;16.70;11.20;;;;;;;0.11;70.09;101488.06;106821;1264;68965;-39
2024/01/29 01:39:13;;;;;;;18.70;12.10;;;;;;;0.14;70.28;101491.69;106783;1265;71406;-40
2024/01/29 01:41:48;;;;;;;17.60;11.20;;;;;;;0.18;70.39;101495.18;106802;1267;59626;-40
2024/01/29 01:44:15;;;;;;;15.80;10.80;;;;;;;0.22;70.32;101494.35;106857;1263;59538;-40
2024/01/29 01:46:43;;;;;;;17.60;11.20;;;;;;;0.24;70.01;101492.41;106823;1263;71801;-39
2024/01/29 01:49:11;;;;;;;18.80;12.10;;;;;;;0.25;69.94;101491.58;106780;1264;68310;-39
2024/01/29 01:51:38;;;;;;;19.50;12.20;;;;;;;0.25;69.81;101498.98;106723;1263;72705;-40
2024/01/29 01:54:06;;;;;;;17.70;11.50;;;;;;;0.24;70.06;101498.38;106707;1263;59628;-40
2024/01/29 01:56:33;;;;;;;18.30;11.20;;;;;;;0.19;69.79;101495.73;106614;1263;59378;-40
2024/01/29 01:59:01;;;;;;;17.60;10.90;;;;;;;0.16;69.89;101496.41;106715;1269;72134;-40
2024/01/29 02:01:29;;;;;;;15.50;10.70;;;;;;;0.18;69.87;101499.66;106624;1263;68408;-40
2024/01/29 02:03:57;;;;;;;15.90;10.40;;;;;;;0.25;69.79;101506.08;106628;1265;71398;-40
2024/01/29 02:06:25;;;;;;;15.50;10.60;;;;;;;0.27;69.82;101509.92;106614;1264;59265;-40
2024/01/29 02:08:53;;;;;;;17.80;12.10;;;;;;;0.26;69.88;101516.09;106736;1264;59390;-40
2024/01/29 02:11:20;;;;;;;23.10;14.30;;;;;;;0.26;69.83;101516.14;106773;1264;73014;-40
2024/01/29 02:13:48;;;;;;;24.50;14.30;;;;;;;0.28;69.86;101517.45;106677;1265;67436;-39
2024/01/29 02:16:15;;;;;;;23.10;14.40;;;;;;;0.30;69.94;101520.42;106714;1266;71869;-40
2024/01/29 02:18:43;;;;;;;23.80;14.20;;;;;;;0.31;69.78;101521.40;106710;1265;59836;-40
2024/01/29 02:21:11;;;;;;;23.60;14.70;;;;;;;0.28;69.75;101525.52;106698;1270;60604;-40
2024/01/29 02:23:43;;;;;;;20.40;13.90;;;;;;;0.24;69.86;101526.17;106736;1266;73025;-40
2024/01/29 02:26:10;;;;;;;16.30;11.80;;;;;;;0.18;69.77;101522.13;106755;1266;68675;-40
2024/01/29 02:28:38;;;;;;;17.90;11.90;;;;;;;0.17;69.72;101516.34;106709;1267;72469;-40
2024/01/29 02:31:05;;;;;;;19.00;12.00;;;;;;;0.23;69.69;101526.00;106723;1266;59640;-40
2024/01/29 02:33:33;;;;;;;17.70;12.00;;;;;;;0.28;70.09;101526.89;106743;1266;59544;-40
2024/01/29 02:36:01;;;;;;;18.50;11.60;;;;;;;0.32;70.11;101528.20;106692;1266;73039;-39
2024/01/29 02:38:28;;;;;;;17.20;11.50;;;;;;;0.35;69.98;101534.60;106714;1266;68902;-40
2024/01/29 02:40:56;;;;;;;18.00;11.50;;;;;;;0.36;69.92;101530.69;106703;1266;73171;-40
2024/01/29 02:43:23;;;;;;;16.50;11.10;;;;;;;0.37;69.94;101529.80;106722;1266;59612;-40
2024/01/29 02:45:51;;;;;;;18.00;12.10;;;;;;;0.36;69.43;101528.80;106727;1266;59997;-40
2024/01/29 02:48:19;;;;;;;18.40;11.90;;;;;;;0.33;69.46;101532.00;106727;1269;71788;-39
2024/01/29 02:50:48;;;;;;;21.10;11.80;;;;;;;0.27;69.45;101530.19;106691;1264;68410;-40
2024/01/29 02:53:15;;;;;;;18.50;12.80;;;;;;;0.24;69.64;101525.16;106705;1266;72469;-40
2024/01/29 02:55:43;;;;;;;17.10;11.50;;;;;;;0.20;69.66;101531.60;106673;1266;59747;-40
2024/01/29 02:58:10;;;;;;;14.50;9.90;;;;;;;0.23;69.53;101538.27;106712;1265;60084;-40
2024/01/29 03:00:38;;;;;;;15.10;10.40;;;;;;;0.25;69.20;101537.29;106698;1270;72736;-40
2024/01/29 03:03:06;;;;;;;15.20;9.90;;;;;;;0.23;69.18;101544.48;106630;1265;68378;-40
2024/01/29 03:05:33;;;;;;;16.70;10.30;;;;;;;0.24;69.28;101544.30;106628;1266;72588;-40
2024/01/29 03:08:01;;;;;;;16.00;10.80;;;;;;;0.24;69.29;101547.58;106635;1267;59653;-40
2024/01/29 03:10:28;;;;;;;15.60;10.40;;;;;;;0.26;69.16;101552.09;106690;1267;59618;-40
2024/01/29 03:12:57;;;;;;;14.70;10.40;;;;;;;0.28;69.27;101554.60;106787;1262;71853;-40
2024/01/29 03:15:25;;;;;;;17.00;10.70;;;;;;;0.30;69.09;101553.44;106866;1260;67705;-40
2024/01/29 03:17:53;;;;;;;14.50;10.10;;;;;;;0.26;68.77;101546.86;106866;1263;71418;-40
2024/01/29 03:20:21;;;;;;;14.50;10.20;;;;;;;0.23;68.57;101540.58;106781;1266;59573;-40
2024/01/29 03:22:48;;;;;;;16.10;10.50;;;;;;;0.22;68.67;101543.32;106920;1263;60088;-39
2024/01/29 03:25:16;;;;;;;14.50;9.50;;;;;;;0.20;68.62;101541.58;106217;1263;1003010;-40
2024/01/29 03:27:43;;;;;;;15.10;9.90;;;;;;;0.16;68.72;101548.80;106124;1260;1003645;-40
2024/01/29 03:30:12;;;;;;;15.50;9.70;;;;;;;0.13;68.68;101546.14;106961;1263;72922;-40
2024/01/29 03:32:40;;;;;;;15.10;9.00;;;;;;;0.16;68.55;101550.04;106817;1263;59692;-39
2024/01/29 03:35:08;;;;;;;14.80;9.40;;;;;;;0.20;68.56;101549.58;106831;1262;60070;-40
2024/01/29 03:37:35;;;;;;;13.40;9.30;;;;;;;0.22;68.64;101548.55;106854;1263;72858;-40
2024/01/29 03:40:05;;;;;;;15.80;10.40;;;;;;;0.25;68.47;101552.05;106798;1262;67251;-40
2024/01/29 03:42:32;;;;;;;11.80;8.70;;;;;;;0.26;68.47;101552.13;106854;1263;72469;-40
2024/01/29 03:45:00;;;;;;;15.90;10.20;;;;;;;0.26;68.35;101551.19;106865;1264;59733;-40
2024/01/29 03:47:27;;;;;;;14.00;10.10;;;;;;;0.26;68.24;101553.11;106858;1262;60036;-40
2024/01/29 03:49:55;;;;;;;15.70;10.80;;;;;;;0.25;68.43;101552.43;106866;1263;73026;-40
2024/01/29 03:52:24;;;;;;;15.70;10.60;;;;;;;0.24;68.41;101553.42;106872;1262;66271;-40
2024/01/29 03:54:52;;;;;;;15.60;10.40;;;;;;;0.15;68.17;101542.71;106852;1264;72461;-40
2024/01/29 03:57:20;;;;;;;16.00;10.80;;;;;;;0.17;68.39;101554.09;106858;1263;60354;-40
2024/01/29 03:59:48;;;;;;;14.30;10.30;;;;;;;0.16;68.49;101552.84;106789;1263;59531;-40
2024/01/29 04:02:15;;;;;;;18.10;10.70;;;;;;;0.15;68.54;101552.29;106750;1263;73148;-40
2024/01/29 04:04:43;;;;;;;15.40;9.70;;;;;;;0.16;68.45;101549.76;106742;1262;67095;-40
2024/01/29 04:07:11;;;;;;;16.10;9.80;;;;;;;0.23;68.19;101556.02;106820;1262;72487;-39
2024/01/29 04:09:39;;;;;;;16.10;10.50;;;;;;;0.23;68.28;101550.28;106764;1262;59628;-40
2024/01/29 04:12:07;;;;;;;13.80;9.50;;;;;;;0.23;68.49;101553.54;106786;1262;60159;-40
2024/01/29 04:14:34;;;;;;;14.50;9.70;;;;;;;0.26;68.34;101554.80;106828;1263;71890;-40
2024/01/29 04:17:06;;;;;;;15.20;10.10;;;;;;;0.24;68.36;101562.52;106892;1263;69169;-40
2024/01/29 04:19:33;;;;;;;16.70;10.50;;;;;;;0.24;68.39;101558.29;106898;1263;72456;-40
2024/01/29 04:22:01;;;;;;;13.00;9.80;;;;;;;0.20;68.12;101560.56;106836;1262;59625;-40
2024/01/29 04:24:29;;;;;;;15.60;9.50;;;;;;;0.09;68.25;101571.15;106138;1262;1003094;-40
2024/01/29 04:26:57;;;;;;;14.80;9.40;;;;;;;0.03;68.43;101574.52;106084;1261;1005058;-40
2024/01/29 04:29:24;;;;;;;13.80;9.70;;;;;;;0.04;68.61;101573.85;107005;1261;66902;-40
2024/01/29 04:31:52;;;;;;;15.40;10.20;;;;;;;0.04;68.54;101575.70;107043;1260;72692;-40
2024/01/29 04:34:19;;;;;;;15.10;10.30;;;;;;;0.00;68.15;101579.05;106908;1262;59581;-40
2024/01/29 04:36:47;;;;;;;13.80;10.00;;;;;;;-0.00;68.26;101583.04;106945;1261;59484;-40
2024/01/29 04:39:14;;;;;;;13.10;9.30;;;;;;;0.01;67.86;101576.12;106868;1261;73021;-40
2024/01/29 04:41:42;;;;;;;14.90;9.70;;;;;;;0.06;67.63;101582.73;107011;1263;67414;-40
2024/01/29 04:44:09;;;;;;;15.50;10.20;;;;;;;0.07;67.92;101576.89;107209;1257;71762;-40
2024/01/29 04:46:37;;;;;;;16.80;10.80;;;;;;;0.09;67.94;101579.80;107253;1260;59634;-40
2024/01/29 04:49:05;;;;;;;15.50;10.30;;;;;;;0.13;67.84;101579.25;107274;1257;59522;-40
2024/01/29 04:51:33;;;;;;;17.90;11.00;;;;;;;0.16;67.63;101579.42;107261;1257;73045;-40
2024/01/29 04:54:00;;;;;;;18.30;11.20;;;;;;;0.20;67.52;101578.80;107246;1257;67103;-39
2024/01/29 04:56:28;;;;;;;17.90;11.00;;;;;;;0.21;67.53;101580.42;107129;1256;71463;-39
2024/01/29 04:58:55;;;;;;;16.10;11.10;;;;;;;0.20;67.28;101576.67;107130;1257;59519;-39
2024/01/29 05:01:23;;;;;;;14.70;10.30;;;;;;;0.17;67.57;101579.11;107175;1257;59745;-39
2024/01/29 05:03:51;;;;;;;19.30;11.90;;;;;;;0.17;67.71;101577.73;107186;1257;72183;-39
2024/01/29 05:06:19;;;;;;;18.30;12.50;;;;;;;0.16;67.49;101572.80;107276;1257;67402;-39
2024/01/29 05:08:47;;;;;;;18.90;12.10;;;;;;;0.16;67.34;101576.75;107167;1257;71431;-39
2024/01/29 05:11:14;;;;;;;20.20;12.00;;;;;;;0.14;67.66;101578.36;107213;1257;59631;-39
2024/01/29 05:13:42;;;;;;;17.30;11.30;;;;;;;0.09;67.28;101579.97;107175;1261;60024;-39
2024/01/29 05:16:10;;;;;;;16.50;11.00;;;;;;;0.09;67.38;101587.33;107077;1258;71769;-39
2024/01/29 05:18:39;;;;;;;11.20;7.90;;;;;;;0.14;67.57;101586.80;107079;1258;68675;-39
2024/01/29 05:21:07;;;;;;;15.10;10.70;;;;;;;0.18;67.46;101585.02;107072;1260;72459;-39
2024/01/29 05:23:34;;;;;;;16.00;10.60;;;;;;;0.18;67.38;101589.55;107037;1260;60492;-39
2024/01/29 05:26:03;;;;;;;15.60;10.80;;;;;;;0.20;67.30;101596.19;107252;1257;60501;-39
2024/01/29 05:28:30;;;;;;;17.40;11.90;;;;;;;0.20;67.31;101603.46;106391;1260;1002901;-39
2024/01/29 05:30:58;;;;;;;16.00;10.50;;;;;;;0.16;67.27;101604.66;107108;1262;68380;-39
2024/01/29 05:33:25;;;;;;;15.70;11.10;;;;;;;0.05;67.17;101601.48;106466;1257;1003548;-39
2024/01/29 05:35:57;;;;;;;16.30;11.60;;;;;;;-0.08;67.11;101600.41;107070;1257;60204;-39
2024/01/29 05:38:25;;;;;;;19.60;13.00;;;;;;;-0.17;67.35;101600.22;107199;1258;60286;-39
2024/01/29 05:40:52;;;;;;;18.60;12.30;;;;;;;-0.26;67.71;101606.95;107221;1259;74334;-39
2024/01/29 05:43:22;;;;;;;17.40;11.00;;;;;;;-0.30;67.86;101603.66;107183;1258;68387;-39
2024/01/29 05:45:49;;;;;;;18.20;11.50;;;;;;;-0.24;68.06;101609.13;107095;1257;72642;-39
2024/01/29 05:48:19;;;;;;;17.00;11.80;;;;;;;-0.20;68.17;101616.84;107229;1257;60313;-39
2024/01/29 05:50:47;;;;;;;16.90;11.50;;;;;;;-0.14;68.48;101609.30;107251;1258;60495;-39
2024/01/29 05:53:16;;;;;;;17.40;12.10;;;;;;;-0.12;68.35;101614.23;107209;1257;72576;-39
2024/01/29 05:55:44;;;;;;;21.80;11.90;;;;;;;-0.10;68.12;101623.63;107229;1258;68364;-39
2024/01/29 05:58:11;;;;;;;19.00;12.20;;;;;;;-0.06;68.38;101630.07;107191;1258;71267;-39
2024/01/29 06:00:39;;;;;;;19.80;12.50;;;;;;;-0.08;68.04;101636.52;107226;1262;60559;-39
2024/01/29 06:03:07;;;;;;;21.80;14.40;;;;;;;-0.15;68.07;101637.42;107120;1259;60419;-39
2024/01/29 06:05:34;;;;;;;19.90;12.90;;;;;;;-0.16;68.40;101641.63;107045;1258;73889;-40
2024/01/29 06:08:02;;;;;;;21.50;15.10;;;;;;;-0.14;68.39;101643.85;107031;1257;68442;-40
2024/01/29 06:10:30;;;;;;;20.60;13.50;;;;;;;-0.13;68.55;101643.08;107137;1257;72702;-39
2024/01/29 06:12:58;;;;;;;20.10;13.80;;;;;;;-0.11;68.66;101645.34;107202;1258;59679;-40
2024/01/29 06:15:25;;;;;;;21.20;14.00;;;;;;;-0.03;68.38;101647.03;107065;1257;60296;-40
2024/01/29 06:17:53;;;;;;;21.20;14.20;;;;;;;0.02;67.87;101649.16;107184;1257;73827;-40
2024/01/29 06:20:20;;;;;;;23.00;15.40;;;;;;;-0.09;68.00;101649.56;107218;1257;67386;-40
2024/01/29 06:22:48;;;;;;;22.40;14.40;;;;;;;-0.13;68.28;101659.08;107159;1257;71665;-40
2024/01/29 06:25:19;;;;;;;22.00;14.20;;;;;;;-0.19;68.36;101672.42;107105;1260;60351;-40
2024/01/29 06:27:48;;;;;;;22.50;14.10;;;;;;;-0.22;68.71;101673.83;107151;1261;59471;-40
2024/01/29 06:30:16;;;;;;;22.30;14.50;;;;;;;-0.27;69.00;101665.64;107164;1257;73870;-40
2024/01/29 06:32:44;;;;;;;22.10;14.70;;;;;;;-0.21;68.79;101666.35;107129;1257;68344;-40
2024/01/29 06:35:11;;;;;;;21.50;14.30;;;;;;;-0.25;69.03;101663.27;107002;1257;72778;-39
2024/01/29 06:37:39;;;;;;;21.00;13.50;;;;;;;-0.21;68.98;101663.52;107204;1257;59618;-40
2024/01/29 06:40:08;;;;;;;21.00;13.70;;;;;;;-0.10;69.25;101659.91;107228;1257;60323;-40
2024/01/29 06:42:36;;;;;;;20.20;13.60;;;;;;;-0.03;69.31;101656.19;107279;1257;72901;-40
2024/01/29 06:45:04;;;;;;;30.60;17.80;;;;;;;0.00;69.25;101659.90;107268;1257;68347;-40
2024/01/29 06:47:32;;;;;;;24.50;15.40;;;;;;;0.02;69.15;101664.25;107320;1257;72510;-41
2024/01/29 06:50:00;;;;;;;27.40;16.20;;;;;;;0.02;69.02;101667.77;107299;1257;60579;-40
2024/01/29 06:52:27;;;;;;;26.20;16.90;;;;;;;0.02;69.13;101676.24;107211;1257;59607;-40
2024/01/29 06:54:56;;;;;;;24.20;15.30;;;;;;;0.02;68.95;101681.16;107288;1257;72592;-40
2024/01/29 06:57:24;;;;;;;23.40;14.50;;;;;;;0.02;68.68;101693.42;107194;1257;68404;-40
2024/01/29 06:59:51;;;;;;;24.90;15.30;;;;;;;0.03;68.69;101689.88;107167;1257;71396;-40
2024/01/29 07:02:19;;;;;;;25.30;17.00;;;;;;;0.04;68.76;101681.00;107083;1257;60303;-40
2024/01/29 07:04:46;;;;;;;23.20;15.00;;;;;;;0.13;68.50;101675.95;107175;1257;59999;-40
2024/01/29 07:07:14;;;;;;;21.40;14.80;;;;;;;0.16;68.10;101674.75;107132;1257;73086;-40
2024/01/29 07:09:42;;;;;;;25.40;17.70;;;;;;;0.10;68.27;101680.16;107229;1257;68847;-39
2024/01/29 07:12:10;;;;;;;29.50;18.50;;;;;;;0.01;68.60;101682.25;107222;1257;71385;-39
2024/01/29 07:14:37;;;;;;;23.10;14.50;;;;;;;-0.05;68.79;101682.02;107160;1257;60534;-40
2024/01/29 07:17:08;;;;;;;21.60;13.60;;;;;;;-0.05;68.65;101684.48;107185;1261;60495;-39
2024/01/29 07:19:36;;;;;;;20.90;14.40;;;;;;;-0.04;68.46;101686.56;107270;1257;74235;-39
2024/01/29 07:22:04;;;;;;;20.20;13.00;;;;;;;-0.07;68.24;101691.37;107204;1257;68491;-40
2024/01/29 07:24:33;;;;;;;21.30;14.00;;;;;;;-0.05;68.25;101690.08;107213;1258;71404;-40
2024/01/29 07:27:01;;;;;;;20.70;13.60;;;;;;;-0.00;67.79;101692.84;107171;1257;60310;-41
2024/01/29 07:29:31;;;;;;;24.10;15.10;;;;;;;0.02;67.42;101694.48;106454;1257;1002546;-40
2024/01/29 07:31:59;;;;;;;27.00;16.00;;;;;;;0.02;67.33;101695.52;106428;1257;1003368;-40
2024/01/29 07:34:27;;;;;;;35.90;18.30;;;;;;;0.09;67.15;101694.86;107181;1257;67081;-40
2024/01/29 07:36:55;;;;;;;33.70;18.70;;;;;;;0.10;67.43;101698.56;107224;1258;73104;-40
2024/01/29 07:39:22;;;;;;;34.60;18.60;;;;;;;0.12;67.58;101702.92;107242;1257;60520;-40
2024/01/29 07:41:50;;;;;;;27.50;16.50;;;;;;;0.16;67.64;101701.33;107265;1257;60247;-40
2024/01/29 07:44:18;;;;;;;19.20;13.60;;;;;;;0.17;67.49;101701.81;106482;1257;1002546;-40
2024/01/29 07:46:45;;;;;;;21.80;14.30;;;;;;;0.16;66.89;101700.19;107263;1257;67412;-39
2024/01/29 07:49:13;;;;;;;19.60;13.40;;;;;;;0.15;67.06;101705.25;107236;1257;71275;-40
2024/01/29 07:51:41;;;;;;;19.50;13.00;;;;;;;0.20;67.05;101709.30;107266;1262;60463;-39
2024/01/29 07:54:08;;;;;;;22.80;13.90;;;;;;;0.27;66.56;101713.08;107162;1257;60388;-39
2024/01/29 07:56:39;;;;;;;18.70;12.50;;;;;;;0.34;66.19;101704.58;107199;1257;73839;-39
2024/01/29 07:59:07;;;;;;;20.00;13.60;;;;;;;0.36;65.49;101699.20;107183;1257;67082;-40
2024/01/29 08:01:34;;;;;;;22.90;15.90;;;;;;;0.35;65.16;101702.09;107149;1257;70637;-39
2024/01/29 08:04:03;;;;;;;20.50;13.20;;;;;;;0.31;65.32;101704.58;107012;1259;60408;-39
2024/01/29 08:06:32;;;;;;;20.00;13.60;;;;;;;0.32;65.68;101711.59;107023;1258;60521;-39
2024/01/29 08:09:00;;;;;;;16.70;11.10;;;;;;;0.36;65.24;101716.96;106313;1260;1003624;-39
2024/01/29 08:11:27;;;;;;;27.10;16.70;;;;;;;0.41;65.02;101702.55;107089;1258;67566;-40
2024/01/29 08:13:55;;;;;;;16.90;11.20;;;;;;;0.52;65.08;101715.31;107066;1262;70694;-40
2024/01/29 08:16:23;;;;;;;28.00;18.00;;;;;;;0.59;64.92;101712.99;107050;1259;60434;-40
2024/01/29 08:18:51;;;;;;;15.90;11.30;;;;;;;0.67;64.52;101713.37;107097;1259;60484;-40
2024/01/29 08:21:19;;;;;;;18.50;12.00;;;;;;;0.67;64.08;101713.02;107074;1260;72099;-40
2024/01/29 08:23:46;;;;;;;36.60;23.20;;;;;;;0.62;64.30;101711.90;107005;1260;67370;-40
2024/01/29 08:26:14;;;;;;;27.90;18.20;;;;;;;0.63;64.31;101713.69;107004;1260;73547;-39
2024/01/29 08:28:42;;;;;;;18.60;13.30;;;;;;;0.63;64.23;101715.33;106993;1260;60438;-40
2024/01/29 08:31:10;;;;;;;20.60;13.90;;;;;;;0.65;64.29;101717.73;107003;1259;59087;-40
2024/01/29 08:33:38;;;;;;;16.60;11.20;;;;;;;0.72;64.32;101723.27;107047;1259;73003;-40
2024/01/29 08:36:06;;;;;;;21.00;13.60;;;;;;;0.74;64.17;101721.92;107053;1262;68846;-39
2024/01/29 08:38:33;;;;;;;15.00;10.40;;;;;;;0.76;64.36;101723.94;107048;1259;71458;-40
2024/01/29 08:41:01;;;;;;;13.90;9.40;;;;;;;0.79;64.13;101726.61;107054;1262;60611;-40
2024/01/29 08:43:28;;;;;;;14.10;9.30;;;;;;;0.80;63.22;101732.92;107102;1262;60377;-40
2024/01/29 08:45:56;;;;;;;14.20;9.20;;;;;;;0.77;63.06;101732.39;107048;1262;72981;-40
2024/01/29 08:48:24;;;;;;;14.20;9.90;;;;;;;0.75;63.21;101729.41;107091;1260;68597;-38
2024/01/29 08:50:52;;;;;;;15.10;9.40;;;;;;;0.75;63.55;101735.01;107061;1260;72648;-38
2024/01/29 08:53:19;;;;;;;13.20;9.40;;;;;;;0.68;63.51;101725.70;107018;1259;60556;-38
2024/01/29 08:55:47;;;;;;;16.70;10.70;;;;;;;0.76;63.40;101743.11;107024;1260;59251;-38
2024/01/29 08:58:15;;;;;;;14.70;9.50;;;;;;;0.78;63.59;101748.43;106932;1260;73036;-39
2024/01/29 09:00:42;;;;;;;14.30;10.20;;;;;;;0.81;63.45;101753.61;106925;1263;68350;-38
2024/01/29 09:03:10;;;;;;;13.50;9.20;;;;;;;0.93;63.21;101754.60;106955;1260;72795;-40
2024/01/29 09:05:38;;;;;;;13.60;9.20;;;;;;;1.03;62.39;101755.91;106920;1260;60517;-38
2024/01/29 09:08:06;;;;;;;15.00;9.60;;;;;;;1.03;62.37;101756.65;106970;1260;60384;-38
2024/01/29 09:10:45;;;;;;;14.90;9.50;;;;;;;1.05;62.07;101755.64;107037;1260;73924;-38
2024/01/29 09:13:15;;;;;;;12.00;8.80;;;;;;;1.06;61.94;101755.77;107079;1259;68459;-38
2024/01/29 09:15:43;;;;;;;13.10;8.90;;;;;;;1.09;61.81;101758.42;107190;1257;70553;-38
2024/01/29 09:18:11;;;;;;;12.00;8.40;;;;;;;1.11;61.16;101756.83;107024;1260;60415;-38
2024/01/29 09:20:39;;;;;;;11.00;7.90;;;;;;;1.11;61.10;101758.22;107050;1257;60620;-38
2024/01/29 09:23:07;;;;;;;18.50;12.40;;;;;;;1.14;61.07;101756.89;107046;1257;73778;-38
2024/01/29 09:25:35;;;;;;;12.20;8.40;;;;;;;1.21;61.08;101753.77;107021;1258;68707;-38
2024/01/29 09:28:03;;;;;;;11.80;8.50;;;;;;;1.29;60.68;101757.23;106258;1262;1002976;-38
2024/01/29 09:30:31;;;;;;;15.10;9.90;;;;;;;1.39;60.69;101756.16;106984;1262;60522;-38
2024/01/29 09:32:59;;;;;;;15.50;10.50;;;;;;;1.52;60.86;101751.70;107015;1262;60322;-39
2024/01/29 09:35:41;;;;;;;15.00;9.90;;;;;;;1.70;60.39;101749.88;107054;1258;71611;-39
2024/01/29 09:38:09;;;;;;;13.40;9.90;;;;;;;1.81;59.87;101746.73;107091;1260;68852;-39
2024/01/29 09:40:36;;;;;;;16.80;10.40;;;;;;;1.90;59.92;101743.45;107062;1260;71828;-38
2024/01/29 09:43:05;;;;;;;15.30;10.90;;;;;;;1.98;59.62;101746.20;107047;1260;60517;-39
2024/01/29 09:45:33;;;;;;;15.70;10.80;;;;;;;2.03;59.82;101747.07;107078;1257;60511;-39
2024/01/29 09:48:01;;;;;;;14.60;9.90;;;;;;;2.08;59.39;101748.50;107058;1262;72095;-39
2024/01/29 09:50:29;;;;;;;14.80;10.60;;;;;;;2.15;59.26;101745.76;106341;1258;1003056;-39
2024/01/29 09:52:56;;;;;;;15.30;10.30;;;;;;;2.20;58.87;101747.98;107051;1257;72900;-39
2024/01/29 09:55:26;;;;;;;14.20;10.20;;;;;;;2.27;58.68;101746.36;107101;1259;60411;-39
2024/01/29 09:57:54;;;;;;;11.70;8.30;;;;;;;2.31;58.75;101748.08;106342;1258;1003082;-39
2024/01/29 10:00:22;;;;;;;13.60;10.10;;;;;;;2.34;58.78;101746.45;107052;1258;73816;-39
2024/01/29 10:02:50;;;;;;;12.70;9.40;;;;;;;2.43;58.83;101749.05;107039;1258;67584;-39
2024/01/29 10:05:18;;;;;;;13.50;9.40;;;;;;;2.58;58.69;101747.83;107037;1260;71544;-39
2024/01/29 10:07:47;;;;;;;12.40;9.00;;;;;;;2.73;58.58;101746.77;107007;1260;60187;-39
2024/01/29 10:10:14;;;;;;;14.70;10.50;;;;;;;2.88;58.78;101750.01;106346;1257;1003039;-39
2024/01/29 10:12:42;;;;;;;11.60;8.40;;;;;;;3.11;57.67;101748.34;107075;1260;74535;-39
2024/01/29 10:15:10;;;;;;;11.80;8.30;;;;;;;3.22;56.35;101750.45;107025;1257;68141;-39
2024/01/29 10:17:38;;;;;;;11.40;7.80;;;;;;;3.24;55.71;101751.82;107040;1260;71573;-39
2024/01/29 10:20:19;;;;;;;11.50;8.30;;;;;;;3.26;55.11;101750.17;106940;1260;60403;-39
2024/01/29 10:22:48;;;;;;;10.30;8.10;;;;;;;3.28;54.71;101751.12;107043;1259;60455;-40
2024/01/29 10:25:16;;;;;;;7.80;5.80;;;;;;;3.29;54.47;101753.21;107019;1260;73347;-40
2024/01/29 10:27:45;;;;;;;10.70;8.00;;;;;;;3.33;53.82;101747.61;107083;1261;68688;-39
2024/01/29 10:30:13;;;;;;;10.20;7.50;;;;;;;3.40;53.94;101747.04;107122;1262;70702;-39
2024/01/29 10:32:41;;;;;;;8.70;6.40;;;;;;;3.51;53.60;101746.66;107078;1262;60450;-39
2024/01/29 10:35:08;;;;;;;7.40;5.70;;;;;;;3.68;52.91;101752.18;106960;1257;60284;-40
2024/01/29 10:37:36;;;;;;;8.30;6.30;;;;;;;3.87;52.46;101750.20;106962;1258;73994;-39
2024/01/29 10:40:04;;;;;;;8.50;5.90;;;;;;;4.01;52.29;101742.73;107017;1260;67395;-39
2024/01/29 10:42:32;;;;;;;6.10;4.90;;;;;;;4.13;51.95;101738.26;107111;1260;71475;-39
2024/01/29 10:45:00;;;;;;;7.50;5.30;;;;;;;4.40;51.83;101740.14;107004;1258;59663;-40
2024/01/29 10:47:30;;;;;;;5.50;3.90;;;;;;;4.74;51.72;101735.63;107083;1262;60607;-40
2024/01/29 10:49:58;;;;;;;4.60;3.70;;;;;;;4.97;48.63;101741.15;107059;1258;72624;-40
2024/01/29 10:52:26;;;;;;;4.70;3.80;;;;;;;4.91;47.48;101745.86;106978;1262;68900;-40
2024/01/29 10:54:55;;;;;;;7.00;5.00;;;;;;;4.60;47.52;101750.13;106950;1260;72827;-40
2024/01/29 10:57:23;;;;;;;6.90;5.30;;;;;;;4.21;48.30;101739.92;107074;1262;62140;-40
2024/01/29 10:59:50;;;;;;;7.40;5.30;;;;;;;3.95;49.31;101743.13;107058;1260;60355;-40
2024/01/29 11:02:18;;;;;;;4.90;3.80;;;;;;;3.75;49.93;101743.98;107028;1257;72796;-40
2024/01/29 11:04:46;;;;;;;4.80;3.80;;;;;;;3.70;50.30;101747.26;107045;1263;68897;-40
2024/01/29 11:07:20;;;;;;;3.60;2.90;;;;;;;3.71;48.19;101748.30;107205;1260;72976;-39
2024/01/29 11:10:12;;;;;;;3.20;2.70;;;;;;;3.60;47.68;101744.81;107082;1257;59344;-40
2024/01/29 11:12:40;;;;;;;3.70;2.70;;;;;;;3.45;47.87;101743.07;106996;1260;60428;-40
2024/01/29 11:15:07;;;;;;;3.10;2.80;;;;;;;3.35;47.52;101745.37;106945;1257;72722;-40